createdAt,value
2022-10-20T00:00:32.519Z,82.07
2022-10-20T00:06:07.199Z,82.04
2022-10-20T00:11:13.984Z,82.11
2022-10-20T00:16:18.936Z,82.04
2022-10-20T00:21:27.571Z,82.01
2022-10-20T00:26:32.875Z,82.00
2022-10-20T00:31:36.242Z,82.04
2022-10-20T00:36:40.888Z,82.26
2022-10-20T00:41:44.097Z,82.20
2022-10-20T00:46:47.751Z,82.13
2022-10-20T00:51:55.105Z,81.99
2022-10-20T00:56:59.983Z,82.03
2022-10-20T01:02:08.697Z,82.09
2022-10-20T01:07:12.265Z,82.25
2022-10-20T01:12:41.241Z,82.36
2022-10-20T01:18:03.596Z,82.40
2022-10-20T01:23:18.890Z,82.32
2022-10-20T01:28:47.700Z,82.32
2022-10-20T01:34:02.413Z,82.44
2022-10-20T01:39:25.322Z,82.44
2022-10-20T01:44:31.195Z,82.46
2022-10-20T01:49:34.825Z,82.40
2022-10-20T01:54:38.264Z,82.35
2022-10-20T02:00:09.724Z,82.33
2022-10-20T02:05:47.835Z,82.28
2022-10-20T02:10:57.751Z,82.37
2022-10-20T02:16:07.889Z,82.22
2022-10-20T02:21:12.301Z,82.14
2022-10-20T02:26:20.663Z,82.21
2022-10-20T02:31:25.402Z,82.11
2022-10-20T02:36:30.292Z,81.94
2022-10-20T02:41:34.175Z,81.86
2022-10-20T02:46:37.487Z,81.89
2022-10-20T02:51:40.900Z,81.86
2022-10-20T02:56:44.215Z,81.98
2022-10-20T03:01:48.218Z,81.94
2022-10-20T03:06:51.669Z,81.93
2022-10-20T03:11:55.164Z,81.87
2022-10-20T03:16:58.482Z,81.93
2022-10-20T03:22:02.016Z,82.02
2022-10-20T03:27:05.514Z,82.06
2022-10-20T03:32:08.736Z,82.10
2022-10-20T03:37:12.052Z,82.13
2022-10-20T03:42:16.103Z,82.09
2022-10-20T03:47:19.374Z,82.11
2022-10-20T03:52:22.789Z,82.20
2022-10-20T03:57:26.101Z,82.23
2022-10-20T04:02:43.457Z,82.35
2022-10-20T04:07:47.586Z,82.41
2022-10-20T04:12:50.850Z,82.40
2022-10-20T04:17:54.403Z,82.43
2022-10-20T04:22:57.673Z,82.32
2022-10-20T04:28:01.126Z,82.29
2022-10-20T04:33:04.848Z,82.24
2022-10-20T04:38:09.316Z,82.23
2022-10-20T04:43:12.700Z,82.06
2022-10-20T04:48:17.061Z,82.01
2022-10-20T04:53:20.350Z,81.86
2022-10-20T04:58:25.352Z,81.89
2022-10-20T05:03:28.711Z,81.85
2022-10-20T05:08:32.039Z,81.75
2022-10-20T05:13:35.953Z,81.53
2022-10-20T05:18:40.794Z,81.47
2022-10-20T05:23:45.411Z,81.32
2022-10-20T05:28:51.102Z,81.18
2022-10-20T05:33:57.284Z,81.18
2022-10-20T05:39:00.698Z,81.31
2022-10-20T05:44:08.736Z,81.29
2022-10-20T05:54:39.001Z,80.98
2022-10-20T05:59:42.510Z,80.99
2022-10-20T06:04:47.754Z,80.98
2022-10-20T06:09:52.131Z,80.78
2022-10-20T06:14:55.421Z,80.74
2022-10-20T06:19:58.682Z,80.67
2022-10-20T06:25:02.043Z,80.54
2022-10-20T06:30:06.851Z,80.34
2022-10-20T06:35:10.078Z,80.43
2022-10-20T06:40:13.966Z,80.52
2022-10-20T06:45:17.882Z,80.41
2022-10-20T06:50:21.364Z,80.36
2022-10-20T06:55:24.630Z,80.17
2022-10-20T07:00:28.076Z,80.15
2022-10-20T07:05:31.603Z,80.18
2022-10-20T07:10:34.913Z,79.85
2022-10-20T07:15:38.156Z,79.97
2022-10-20T07:20:41.427Z,79.90
2022-10-20T07:25:44.906Z,79.58
2022-10-20T07:30:48.880Z,79.57
2022-10-20T07:35:52.265Z,79.83
2022-10-20T07:41:03.260Z,79.88
2022-10-20T07:46:07.811Z,79.75
2022-10-20T07:51:31.200Z,79.82
2022-10-20T07:56:41.993Z,79.96
2022-10-20T08:01:45.378Z,79.93
2022-10-20T08:06:48.757Z,79.86
2022-10-20T08:11:55.328Z,79.88
2022-10-20T08:17:01.147Z,79.78
2022-10-20T08:22:04.490Z,79.43
2022-10-20T08:27:07.798Z,79.21
2022-10-20T08:32:13.169Z,79.39
2022-10-20T08:37:16.486Z,79.04
2022-10-20T08:42:19.989Z,78.79
2022-10-20T08:47:37.581Z,78.64
2022-10-20T08:52:43.293Z,78.50
2022-10-20T08:57:49.689Z,77.97
2022-10-20T09:02:56.579Z,77.93
2022-10-20T09:07:59.997Z,77.57
2022-10-20T09:13:30.441Z,76.46
2022-10-20T09:18:35.201Z,75.86
2022-10-20T09:29:14.705Z,75.51
2022-10-20T09:34:26.363Z,75.50
2022-10-20T09:39:39.650Z,75.34
2022-10-20T09:44:56.872Z,75.03
2022-10-20T09:50:08.995Z,74.60
2022-10-20T09:55:35.241Z,74.72
2022-10-20T10:00:47.206Z,73.61
2022-10-20T10:06:00.909Z,73.11
2022-10-20T10:11:18.862Z,72.35
2022-10-20T10:16:24.801Z,72.03
2022-10-20T10:21:41.979Z,71.64
2022-10-20T10:26:45.794Z,71.49
2022-10-20T10:32:01.096Z,71.28
2022-10-20T10:37:04.819Z,71.21
2022-10-20T10:42:46.021Z,70.82
2022-10-20T10:48:44.005Z,70.71
2022-10-20T10:54:33.600Z,70.69
2022-10-20T10:59:43.162Z,70.32
2022-10-20T11:04:58.204Z,69.68
2022-10-20T11:10:10.982Z,69.96
2022-10-20T11:15:33.240Z,69.36
2022-10-20T11:20:55.284Z,69.59
2022-10-20T11:26:29.254Z,69.09
2022-10-20T11:31:55.567Z,67.81
2022-10-20T11:37:13.324Z,66.63
2022-10-20T11:42:31.940Z,65.64
2022-10-20T11:47:41.907Z,65.39
2022-10-20T11:53:28.278Z,64.88
2022-10-20T11:58:43.740Z,64.07
2022-10-20T12:04:05.729Z,62.82
2022-10-20T12:09:48.121Z,63.30
2022-10-20T12:15:01.196Z,62.34
2022-10-20T12:20:22.976Z,62.76
2022-10-20T12:25:26.456Z,61.39
2022-10-20T12:30:38.888Z,60.74
2022-10-20T12:36:14.331Z,60.84
2022-10-20T12:41:35.184Z,60.69
2022-10-20T12:46:51.997Z,60.44
2022-10-20T12:51:59.150Z,59.27
2022-10-20T12:57:26.686Z,59.72
2022-10-20T13:02:33.151Z,59.85
2022-10-20T13:07:48.767Z,59.78
2022-10-20T13:12:54.841Z,59.39
2022-10-20T13:18:14.029Z,59.88
2022-10-20T13:23:23.994Z,59.97
2022-10-20T13:28:32.840Z,59.29
2022-10-20T13:34:03.330Z,59.88
2022-10-20T13:39:52.543Z,59.86
2022-10-20T13:45:25.687Z,59.63
2022-10-20T13:50:40.880Z,59.44
2022-10-20T13:56:08.586Z,59.40
2022-10-20T14:01:23.536Z,59.72
2022-10-20T14:06:36.783Z,59.78
2022-10-20T14:11:41.906Z,59.49
2022-10-20T14:16:56.205Z,59.92
2022-10-20T14:22:23.786Z,59.81
2022-10-20T14:27:31.714Z,60.09
2022-10-20T14:32:40.897Z,60.08
2022-10-20T14:37:52.770Z,60.20
2022-10-20T14:43:15.445Z,60.20
2022-10-20T14:48:18.950Z,60.54
2022-10-20T14:53:33.623Z,60.90
2022-10-20T14:58:57.007Z,61.13
2022-10-20T15:04:24.785Z,61.44
2022-10-20T15:09:35.073Z,61.80
2022-10-20T15:14:39.712Z,62.03
2022-10-20T15:19:43.282Z,62.33
2022-10-20T15:24:50.194Z,62.96
2022-10-20T15:29:53.684Z,63.54
2022-10-20T15:34:57.126Z,63.83
2022-10-20T15:40:00.703Z,64.25
2022-10-20T15:45:21.816Z,64.70
2022-10-20T15:50:25.703Z,65.49
2022-10-20T15:55:33.729Z,65.75
2022-10-20T16:00:38.368Z,66.22
2022-10-20T16:05:41.899Z,66.68
2022-10-20T16:10:45.545Z,66.85
2022-10-20T16:15:49.096Z,67.04
2022-10-20T16:20:52.675Z,67.10
2022-10-20T16:25:56.181Z,67.39
2022-10-20T16:31:06.325Z,67.75
2022-10-20T16:36:13.957Z,68.46
2022-10-20T16:41:18.607Z,68.55
2022-10-20T16:46:23.247Z,68.91
2022-10-20T16:51:26.801Z,69.35
2022-10-20T16:56:30.777Z,69.57
2022-10-20T17:01:34.412Z,69.78
2022-10-20T17:06:38.259Z,70.08
2022-10-20T17:11:41.789Z,70.29
2022-10-20T17:16:47.623Z,70.75
2022-10-20T17:21:55.808Z,70.92
2022-10-20T17:26:59.653Z,70.93
2022-10-20T17:32:03.297Z,71.21
2022-10-20T17:37:06.810Z,71.65
2022-10-20T17:42:10.468Z,71.83
2022-10-20T17:47:14.148Z,72.15
2022-10-20T17:52:17.783Z,72.49
2022-10-20T17:57:21.238Z,73.00
2022-10-20T18:02:24.799Z,72.89
2022-10-20T18:07:28.448Z,73.00
2022-10-20T18:12:32.038Z,73.30
2022-10-20T18:17:36.329Z,73.58
2022-10-20T18:22:40.065Z,73.38
2022-10-20T18:27:43.646Z,73.42
2022-10-20T18:32:47.253Z,73.81
2022-10-20T18:37:56.381Z,73.68
2022-10-20T18:43:02.874Z,74.07
2022-10-20T18:48:06.685Z,74.45
2022-10-20T18:53:10.333Z,74.52
2022-10-20T18:58:14.023Z,74.69
2022-10-20T19:03:17.614Z,74.79
2022-10-20T19:08:21.271Z,75.15
2022-10-20T19:13:26.892Z,74.74
2022-10-20T19:18:30.674Z,74.80
2022-10-20T19:23:39.901Z,74.75
2022-10-20T19:28:50.082Z,75.01
2022-10-20T19:34:00.455Z,75.18
2022-10-20T19:39:08.279Z,75.25
2022-10-20T19:44:12.881Z,75.48
2022-10-20T19:49:16.421Z,75.53
2022-10-20T19:54:20.067Z,75.63
2022-10-20T19:59:23.640Z,75.90
2022-10-20T20:04:27.199Z,75.90
2022-10-20T20:09:31.473Z,76.03
2022-10-20T20:14:34.980Z,75.93
2022-10-20T20:19:38.695Z,75.82
2022-10-20T20:24:42.622Z,75.88
2022-10-20T20:29:46.106Z,76.08
2022-10-20T20:34:49.616Z,76.23
2022-10-20T20:39:53.240Z,76.50
2022-10-20T20:44:56.845Z,76.82
2022-10-20T20:50:01.082Z,77.01
2022-10-20T20:55:05.777Z,77.25
2022-10-20T21:00:10.652Z,77.21
2022-10-20T21:05:14.320Z,77.15
2022-10-20T21:10:18.191Z,77.34
2022-10-20T21:15:22.195Z,77.51
2022-10-20T21:20:26.099Z,77.79
2022-10-20T21:25:29.583Z,77.88
2022-10-20T21:30:33.127Z,78.07
2022-10-20T21:35:36.617Z,78.23
2022-10-20T21:40:40.080Z,78.11
2022-10-20T21:45:43.505Z,77.74
2022-10-20T21:50:47.061Z,77.52
2022-10-20T21:55:50.472Z,78.11
2022-10-20T22:00:55.013Z,78.43
2022-10-20T22:05:58.566Z,78.64
2022-10-20T22:11:13.005Z,78.79
2022-10-20T22:16:20.929Z,78.58
2022-10-20T22:21:25.319Z,78.68
